Time;durP1;ratioP1;P1;durP2;ratioP2;P2;SDS_P1;SDS_P2;PMS_P1;PMS_P2;Temp;Humidity;BMP_temperature;BMP_pressure;BME280_temperature;BME280_humidity;BME280_pressure;Samples;Min_cycle;Max_cycle;Signal;HPM_P1;HPM_P2
2024/02/18 00:01:33;;;;;;;13.10;6.95;;;;;;;;;;6062158;23;20010;-69
2024/02/18 00:03:59;;;;;;;15.20;7.00;;;;;;;;;;6015715;23;20007;-71
2024/02/18 00:06:25;;;;;;;11.82;6.95;;;;;;;;;;6064820;23;20013;-72
2024/02/18 00:08:50;;;;;;;11.23;6.70;;;;;;;;;;6064987;23;20031;-71
2024/02/18 00:11:16;;;;;;;12.02;7.10;;;;;;;;;;6064016;23;20491;-71
2024/02/18 00:13:42;;;;;;;12.98;7.75;;;;;;;;;;6038548;23;20007;-72
2024/02/18 00:16:07;;;;;;;12.65;6.13;;;;;;;;;;6038249;23;20014;-71
2024/02/18 00:18:33;;;;;;;12.45;7.40;;;;;;;;;;6038173;23;20436;-71
2024/02/18 00:20:59;;;;;;;11.20;6.82;;;;;;;;;;6039083;23;20466;-70
2024/02/18 00:23:24;;;;;;;12.15;6.57;;;;;;;;;;6039530;23;20021;-71
2024/02/18 00:25:50;;;;;;;13.98;7.38;;;;;;;;;;6038835;23;20013;-71
2024/02/18 00:28:15;;;;;;;10.13;6.60;;;;;;;;;;6064649;23;20336;-72
2024/02/18 00:30:41;;;;;;;13.88;7.93;;;;;;;;;;6064125;23;20082;-70
2024/02/18 00:33:06;;;;;;;13.55;8.10;;;;;;;;;;6038238;23;20474;-70
2024/02/18 00:35:32;;;;;;;16.15;6.88;;;;;;;;;;6037797;23;20397;-71
2024/02/18 00:37:57;;;;;;;12.77;7.47;;;;;;;;;;6063885;23;20018;-71
2024/02/18 00:40:23;;;;;;;15.23;7.68;;;;;;;;;;6063637;23;20432;-72
2024/02/18 00:42:48;;;;;;;15.68;8.07;;;;;;;;;;6064435;23;20492;-71
2024/02/18 00:45:15;;;;;;;15.07;7.75;;;;;;;;;;6063222;23;20014;-70
2024/02/18 00:47:41;;;;;;;13.00;7.80;;;;;;;;;;6063552;23;20029;-70
2024/02/18 00:50:07;;;;;;;12.70;6.78;;;;;;;;;;6037804;23;20007;-70
2024/02/18 00:52:33;;;;;;;14.52;7.68;;;;;;;;;;6062990;23;20048;-71
2024/02/18 00:54:58;;;;;;;13.02;7.78;;;;;;;;;;6038004;23;20007;-71
2024/02/18 00:57:24;;;;;;;14.40;7.28;;;;;;;;;;6037818;23;20314;-70
2024/02/18 00:59:49;;;;;;;13.15;7.95;;;;;;;;;;6038114;23;20038;-71
2024/02/18 01:02:15;;;;;;;16.55;8.40;;;;;;;;;;6063584;23;20011;-70
2024/02/18 01:04:40;;;;;;;14.85;8.30;;;;;;;;;;6037482;23;20439;-71
2024/02/18 01:07:09;;;;;;;14.18;8.15;;;;;;;;;;6037883;23;20007;-70
2024/02/18 01:09:35;;;;;;;14.65;7.40;;;;;;;;;;6063395;23;20003;-69
2024/02/18 01:12:02;;;;;;;13.00;6.88;;;;;;;;;;6063278;23;20038;-71
2024/02/18 01:14:27;;;;;;;11.38;7.55;;;;;;;;;;6037565;23;20325;-69
2024/02/18 01:16:53;;;;;;;13.60;6.75;;;;;;;;;;6037621;23;20010;-72
2024/02/18 01:19:20;;;;;;;12.23;7.10;;;;;;;;;;6038123;23;20015;-72
2024/02/18 01:21:46;;;;;;;12.48;7.22;;;;;;;;;;6037538;23;20030;-72
2024/02/18 01:24:11;;;;;;;13.95;7.47;;;;;;;;;;6037777;23;20033;-72
2024/02/18 01:26:37;;;;;;;14.52;7.20;;;;;;;;;;6062981;23;20258;-71
2024/02/18 01:29:03;;;;;;;11.57;6.75;;;;;;;;;;6037570;23;20010;-72
2024/02/18 01:31:28;;;;;;;13.48;7.15;;;;;;;;;;6061358;23;20011;-71
2024/02/18 01:33:54;;;;;;;11.18;7.45;;;;;;;;;;6063221;23;20011;-71
2024/02/18 01:36:19;;;;;;;18.25;8.68;;;;;;;;;;6063167;23;20332;-72
2024/02/18 01:38:45;;;;;;;12.95;7.80;;;;;;;;;;6037805;23;20013;-71
2024/02/18 01:41:10;;;;;;;15.00;7.35;;;;;;;;;;6063229;23;20014;-70
2024/02/18 01:43:36;;;;;;;14.10;8.25;;;;;;;;;;6037360;23;20049;-70
2024/02/18 01:46:02;;;;;;;14.45;7.18;;;;;;;;;;6037618;23;20070;-70
2024/02/18 01:48:28;;;;;;;26.35;9.32;;;;;;;;;;6063158;23;20459;-69
2024/02/18 01:50:54;;;;;;;22.42;8.85;;;;;;;;;;6037917;23;20417;-70
2024/02/18 01:53:20;;;;;;;17.77;8.05;;;;;;;;;;6062951;23;20099;-71
2024/02/18 01:55:47;;;;;;;29.92;8.32;;;;;;;;;;6062997;23;20007;-70
2024/02/18 01:58:13;;;;;;;22.48;7.97;;;;;;;;;;6037692;23;20018;-71
2024/02/18 02:00:39;;;;;;;23.27;8.85;;;;;;;;;;6063216;23;20015;-69
2024/02/18 02:03:06;;;;;;;14.63;8.00;;;;;;;;;;6063034;23;20033;-69
2024/02/18 02:05:33;;;;;;;16.15;7.93;;;;;;;;;;6037330;23;20082;-71
2024/02/18 02:07:59;;;;;;;15.35;8.05;;;;;;;;;;6062981;23;20050;-70
2024/02/18 02:10:25;;;;;;;15.40;8.40;;;;;;;;;;6061110;23;20037;-69
2024/02/18 02:12:50;;;;;;;15.27;7.95;;;;;;;;;;6037568;23;20420;-71
2024/02/18 02:15:16;;;;;;;22.17;7.70;;;;;;;;;;6063485;23;20010;-71
2024/02/18 02:17:41;;;;;;;13.38;8.30;;;;;;;;;;6039267;23;20030;-70
2024/02/18 02:20:09;;;;;;;15.27;8.35;;;;;;;;;;6039821;23;20023;-70
2024/02/18 02:22:35;;;;;;;23.08;8.55;;;;;;;;;;6039207;23;20285;-70
2024/02/18 02:25:01;;;;;;;15.27;7.32;;;;;;;;;;6039409;23;20091;-72
2024/02/18 02:27:36;;;;;;;12.55;7.05;;;;;;;;;;6038799;23;20026;-72
2024/02/18 02:30:03;;;;;;;19.98;7.78;;;;;;;;;;6065170;23;20003;-71
2024/02/18 02:32:29;;;;;;;14.82;9.10;;;;;;;;;;6062922;23;20097;-71
2024/02/18 02:34:54;;;;;;;26.08;7.88;;;;;;;;;;6039274;23;20039;-69
2024/02/18 02:37:20;;;;;;;21.60;8.60;;;;;;;;;;6064803;23;20010;-69
2024/02/18 02:39:46;;;;;;;17.48;9.15;;;;;;;;;;6039184;23;20186;-70
2024/02/18 02:42:12;;;;;;;15.57;9.07;;;;;;;;;;6039360;23;20007;-71
2024/02/18 02:44:37;;;;;;;21.92;9.30;;;;;;;;;;6038966;23;20127;-71
2024/02/18 02:47:03;;;;;;;19.90;9.10;;;;;;;;;;6064631;23;20018;-72
2024/02/18 02:49:30;;;;;;;19.37;9.60;;;;;;;;;;6062814;23;20513;-72
2024/02/18 02:51:56;;;;;;;18.67;9.27;;;;;;;;;;6064531;23;20066;-71
2024/02/18 02:54:21;;;;;;;19.60;9.60;;;;;;;;;;6065086;23;20007;-68
2024/02/18 02:56:47;;;;;;;18.33;8.80;;;;;;;;;;6038740;23;20021;-70
2024/02/18 02:59:12;;;;;;;23.08;11.35;;;;;;;;;;6064592;23;20010;-70
2024/02/18 03:01:38;;;;;;;17.67;10.45;;;;;;;;;;6038959;23;20010;-70
2024/02/18 03:04:04;;;;;;;17.40;9.17;;;;;;;;;;6064682;23;20003;-71
2024/02/18 03:06:30;;;;;;;18.00;9.23;;;;;;;;;;6064374;23;20003;-70
2024/02/18 03:08:55;;;;;;;16.98;8.73;;;;;;;;;;6064681;23;20424;-70
2024/02/18 03:11:21;;;;;;;14.37;8.17;;;;;;;;;;6038979;23;20010;-70
2024/02/18 03:13:47;;;;;;;17.03;8.57;;;;;;;;;;6064279;23;20030;-70
2024/02/18 03:16:12;;;;;;;18.30;9.30;;;;;;;;;;6064441;23;20014;-71
2024/02/18 03:18:38;;;;;;;18.93;9.43;;;;;;;;;;6064027;23;20011;-70
2024/02/18 03:21:03;;;;;;;22.33;9.43;;;;;;;;;;6039032;23;20038;-70
2024/02/18 03:23:29;;;;;;;17.73;9.27;;;;;;;;;;6038736;23;20450;-71
2024/02/18 03:25:55;;;;;;;16.23;8.70;;;;;;;;;;6065161;23;20011;-72
2024/02/18 03:28:20;;;;;;;16.20;9.47;;;;;;;;;;6038948;23;20433;-71
2024/02/18 03:30:50;;;;;;;16.30;8.83;;;;;;;;;;6038812;23;20509;-71
2024/02/18 03:33:17;;;;;;;17.27;8.40;;;;;;;;;;6039173;23;20007;-71
2024/02/18 03:35:43;;;;;;;18.88;9.07;;;;;;;;;;6063583;23;20093;-69
2024/02/18 03:38:08;;;;;;;17.83;8.63;;;;;;;;;;6038971;23;20041;-70
2024/02/18 03:40:35;;;;;;;15.37;8.47;;;;;;;;;;6039087;23;20019;-70
2024/02/18 03:43:01;;;;;;;14.13;7.87;;;;;;;;;;6038610;23;20413;-70
2024/02/18 03:45:28;;;;;;;15.95;8.20;;;;;;;;;;6038659;23;20007;-72
2024/02/18 03:47:54;;;;;;;14.10;7.60;;;;;;;;;;6064237;23;20134;-70
2024/02/18 03:50:19;;;;;;;14.53;8.67;;;;;;;;;;6063826;23;20039;-70
2024/02/18 03:52:45;;;;;;;16.90;8.43;;;;;;;;;;6051984;23;20021;-70
2024/02/18 03:55:14;;;;;;;17.90;8.73;;;;;;;;;;6064257;23;20321;-71
2024/02/18 03:57:40;;;;;;;16.77;9.20;;;;;;;;;;6062244;23;20011;-71
2024/02/18 04:00:11;;;;;;;16.90;8.75;;;;;;;;;;6062275;23;20034;-70
2024/02/18 04:02:38;;;;;;;17.42;10.02;;;;;;;;;;6062320;23;20007;-71
2024/02/18 04:05:10;;;;;;;15.63;8.70;;;;;;;;;;6062445;23;20337;-70
2024/02/18 04:07:35;;;;;;;13.52;8.20;;;;;;;;;;6062330;23;20286;-71
2024/02/18 04:10:05;;;;;;;17.47;8.70;;;;;;;;;;6063858;23;20022;-71
2024/02/18 04:12:31;;;;;;;15.90;8.63;;;;;;;;;;6062899;23;20081;-72
2024/02/18 04:14:56;;;;;;;20.40;9.57;;;;;;;;;;6064839;23;20090;-72
2024/02/18 04:17:22;;;;;;;15.80;9.50;;;;;;;;;;6065780;23;20074;-70
2024/02/18 04:19:47;;;;;;;22.90;9.52;;;;;;;;;;6066254;23;20015;-72
2024/02/18 04:22:13;;;;;;;16.83;10.23;;;;;;;;;;6063755;23;20038;-70
2024/02/18 04:24:42;;;;;;;18.97;10.43;;;;;;;;;;6064731;23;20405;-72
2024/02/18 04:27:08;;;;;;;22.20;10.47;;;;;;;;;;6064114;23;20006;-71
2024/02/18 04:29:38;;;;;;;23.60;10.40;;;;;;;;;;6063547;23;20119;-70
2024/02/18 04:32:05;;;;;;;20.63;9.53;;;;;;;;;;6063768;23;20138;-69
2024/02/18 04:34:30;;;;;;;21.83;10.07;;;;;;;;;;6063467;23;20006;-75
2024/02/18 04:36:56;;;;;;;19.10;9.57;;;;;;;;;;6064122;23;20007;-69
2024/02/18 04:39:21;;;;;;;17.30;9.70;;;;;;;;;;6061811;23;20015;-71
2024/02/18 04:41:47;;;;;;;21.57;11.07;;;;;;;;;;6063532;23;20078;-71
2024/02/18 04:44:12;;;;;;;23.83;10.30;;;;;;;;;;6062035;23;20388;-70
2024/02/18 04:46:38;;;;;;;18.90;10.03;;;;;;;;;;6062214;23;20033;-70
2024/02/18 04:49:04;;;;;;;19.43;10.63;;;;;;;;;;6063840;23;20014;-70
2024/02/18 04:51:30;;;;;;;17.70;9.90;;;;;;;;;;6061960;23;20069;-72
2024/02/18 04:53:55;;;;;;;18.80;9.77;;;;;;;;;;6063536;23;20002;-71
2024/02/18 04:56:21;;;;;;;22.00;9.53;;;;;;;;;;6063333;23;20314;-71
2024/02/18 04:58:46;;;;;;;21.60;9.17;;;;;;;;;;6037771;23;20451;-70
2024/02/18 05:01:12;;;;;;;17.57;9.40;;;;;;;;;;6063835;23;20483;-71
2024/02/18 05:03:40;;;;;;;15.63;9.57;;;;;;;;;;6063522;23;20432;-71
2024/02/18 05:06:10;;;;;;;17.37;9.17;;;;;;;;;;6038474;23;20069;-69
2024/02/18 05:08:35;;;;;;;17.97;9.53;;;;;;;;;;6038132;23;20019;-70
2024/02/18 05:11:01;;;;;;;29.20;11.23;;;;;;;;;;6037722;23;20010;-70
2024/02/18 05:13:26;;;;;;;21.90;9.80;;;;;;;;;;6038162;23;20003;-71
2024/02/18 05:15:52;;;;;;;19.53;9.77;;;;;;;;;;6063391;23;20013;-69
2024/02/18 05:18:19;;;;;;;19.63;9.93;;;;;;;;;;6063669;23;20497;-71
2024/02/18 05:20:45;;;;;;;19.23;9.97;;;;;;;;;;6062476;23;20089;-71
2024/02/18 05:23:11;;;;;;;18.57;10.03;;;;;;;;;;6064059;23;20006;-72
2024/02/18 05:25:38;;;;;;;19.50;9.37;;;;;;;;;;6037753;23;20393;-72
2024/02/18 05:28:05;;;;;;;16.87;9.70;;;;;;;;;;6063794;23;20011;-71
2024/02/18 05:30:30;;;;;;;21.33;9.93;;;;;;;;;;6061523;23;20021;-72
2024/02/18 05:32:56;;;;;;;17.83;10.30;;;;;;;;;;6062960;23;20030;-72
2024/02/18 05:35:21;;;;;;;27.33;10.40;;;;;;;;;;6037352;23;20364;-72
2024/02/18 05:37:47;;;;;;;20.73;10.93;;;;;;;;;;6037402;23;20007;-70
2024/02/18 05:40:13;;;;;;;19.43;10.30;;;;;;;;;;6037690;23;20328;-71
2024/02/18 05:42:38;;;;;;;21.13;10.27;;;;;;;;;;6063257;23;20067;-72
2024/02/18 05:45:05;;;;;;;21.20;11.20;;;;;;;;;;6037711;23;20401;-72
2024/02/18 05:47:31;;;;;;;19.60;9.57;;;;;;;;;;6037812;23;20011;-71
2024/02/18 05:49:56;;;;;;;15.20;10.03;;;;;;;;;;6037460;23;20344;-71
2024/02/18 05:52:22;;;;;;;23.97;11.30;;;;;;;;;;6065112;23;20018;-71
2024/02/18 05:54:47;;;;;;;25.07;11.90;;;;;;;;;;6039678;23;20494;-71
2024/02/18 05:57:13;;;;;;;18.50;11.00;;;;;;;;;;6039487;23;20002;-71
2024/02/18 05:59:38;;;;;;;22.13;11.27;;;;;;;;;;6064804;23;20030;-71
2024/02/18 06:02:07;;;;;;;17.40;10.93;;;;;;;;;;6040642;23;20255;-70
2024/02/18 06:04:33;;;;;;;20.20;10.80;;;;;;;;;;6063503;23;20031;-69
2024/02/18 06:06:59;;;;;;;23.80;11.33;;;;;;;;;;6065218;23;20066;-72
2024/02/18 06:09:24;;;;;;;20.33;11.13;;;;;;;;;;6039320;23;20408;-71
2024/02/18 06:11:53;;;;;;;20.10;11.00;;;;;;;;;;6039428;23;20006;-71
2024/02/18 06:14:19;;;;;;;21.87;10.93;;;;;;;;;;6065514;23;20007;-72
2024/02/18 06:16:46;;;;;;;22.23;10.10;;;;;;;;;;6064738;23;20003;-72
2024/02/18 06:19:12;;;;;;;25.43;11.70;;;;;;;;;;6065242;23;20424;-72
2024/02/18 06:21:37;;;;;;;21.53;10.60;;;;;;;;;;6064667;23;20013;-69
2024/02/18 06:24:03;;;;;;;19.53;11.33;;;;;;;;;;6063018;23;20113;-70
2024/02/18 06:26:29;;;;;;;22.47;11.47;;;;;;;;;;6065254;23;20369;-72
2024/02/18 06:28:55;;;;;;;23.00;11.40;;;;;;;;;;6064785;23;20082;-71
2024/02/18 06:31:21;;;;;;;30.63;12.03;;;;;;;;;;6039094;23;20488;-70
2024/02/18 06:33:47;;;;;;;33.50;11.87;;;;;;;;;;6064569;23;20007;-71
2024/02/18 06:36:13;;;;;;;26.23;11.60;;;;;;;;;;6064727;23;20336;-69
2024/02/18 06:38:42;;;;;;;27.33;11.63;;;;;;;;;;6064781;23;20011;-72
2024/02/18 06:41:08;;;;;;;23.53;12.17;;;;;;;;;;6064836;23;20013;-71
2024/02/18 06:43:34;;;;;;;24.50;15.90;;;;;;;;;;6039280;23;20010;-73
2024/02/18 06:46:00;;;;;;;21.77;12.87;;;;;;;;;;6039197;23;20007;-71
2024/02/18 06:48:25;;;;;;;20.93;11.13;;;;;;;;;;6039324;23;20019;-71
2024/02/18 06:50:51;;;;;;;23.70;10.80;;;;;;;;;;6064716;23;20014;-71
2024/02/18 06:53:16;;;;;;;27.90;14.10;;;;;;;;;;6058838;23;20045;-70
2024/02/18 06:55:42;;;;;;;28.77;13.13;;;;;;;;;;6063043;23;20022;-73
2024/02/18 06:58:08;;;;;;;22.67;12.30;;;;;;;;;;6063160;23;20082;-69
2024/02/18 07:00:34;;;;;;;20.43;11.53;;;;;;;;;;6063020;23;20085;-73
2024/02/18 07:03:00;;;;;;;27.47;12.00;;;;;;;;;;6064088;23;20040;-73
2024/02/18 07:05:26;;;;;;;23.70;12.00;;;;;;;;;;6064162;23;20003;-71
2024/02/18 07:07:52;;;;;;;31.37;13.43;;;;;;;;;;6064219;23;20081;-70
2024/02/18 07:10:18;;;;;;;22.63;12.30;;;;;;;;;;6064143;23;20089;-72
2024/02/18 07:12:45;;;;;;;25.13;13.43;;;;;;;;;;6065361;23;20023;-72
2024/02/18 07:15:11;;;;;;;23.07;12.93;;;;;;;;;;6063858;23;20007;-69
2024/02/18 07:17:38;;;;;;;24.77;12.07;;;;;;;;;;6064157;23;20340;-70
2024/02/18 07:20:06;;;;;;;26.77;12.93;;;;;;;;;;6063998;23;20551;-71
2024/02/18 07:22:38;;;;;;;27.00;12.53;;;;;;;;;;6063792;23;20070;-72
2024/02/18 07:25:06;;;;;;;24.07;11.93;;;;;;;;;;6065053;23;20013;-70
2024/02/18 07:27:35;;;;;;;20.17;10.50;;;;;;;;;;6065942;23;20363;-71
2024/02/18 07:30:03;;;;;;;21.40;11.30;;;;;;;;;;6064144;23;20010;-70
2024/02/18 07:32:29;;;;;;;26.20;11.30;;;;;;;;;;6064952;23;20011;-70
2024/02/18 07:34:55;;;;;;;18.20;9.90;;;;;;;;;;6063841;23;20007;-72
2024/02/18 07:37:21;;;;;;;19.17;11.20;;;;;;;;;;6064081;23;20018;-69
2024/02/18 07:39:49;;;;;;;25.80;12.33;;;;;;;;;;6066018;23;20010;-72
2024/02/18 07:42:14;;;;;;;24.30;11.57;;;;;;;;;;6066505;23;20098;-71
2024/02/18 07:44:44;;;;;;;22.57;10.87;;;;;;;;;;6065609;23;20042;-72
2024/02/18 07:47:11;;;;;;;22.00;11.23;;;;;;;;;;6064962;23;20034;-72
2024/02/18 07:49:37;;;;;;;25.57;12.13;;;;;;;;;;6066384;23;20078;-70
2024/02/18 07:52:04;;;;;;;22.87;12.53;;;;;;;;;;6065316;23;20049;-70
2024/02/18 07:54:30;;;;;;;21.27;11.43;;;;;;;;;;6040000;23;20014;-72
2024/02/18 07:56:56;;;;;;;25.57;12.23;;;;;;;;;;6063915;23;20011;-71
2024/02/18 07:59:22;;;;;;;21.57;11.20;;;;;;;;;;6039609;23;20441;-70
2024/02/18 08:01:48;;;;;;;21.57;12.03;;;;;;;;;;6038844;23;20007;-69
2024/02/18 08:04:14;;;;;;;19.53;11.07;;;;;;;;;;6038965;23;20007;-72
2024/02/18 08:06:40;;;;;;;22.77;11.07;;;;;;;;;;6039391;23;20003;-71
2024/02/18 08:09:09;;;;;;;27.70;12.40;;;;;;;;;;6039533;23;20011;-71
2024/02/18 08:11:35;;;;;;;21.53;11.23;;;;;;;;;;6064724;23;20010;-73
2024/02/18 08:14:01;;;;;;;25.87;12.27;;;;;;;;;;6039465;23;20098;-70
2024/02/18 08:16:28;;;;;;;19.97;10.87;;;;;;;;;;6039506;23;20006;-73
2024/02/18 08:18:55;;;;;;;25.60;12.03;;;;;;;;;;6041129;23;20213;-70
2024/02/18 08:21:23;;;;;;;20.57;10.43;;;;;;;;;;6041351;23;20015;-70
2024/02/18 08:23:50;;;;;;;18.27;11.07;;;;;;;;;;6041271;23;19999;-70
2024/02/18 08:26:24;;;;;;;21.20;10.80;;;;;;;;;;6068828;23;20005;-71
2024/02/18 08:28:51;;;;;;;20.20;10.00;;;;;;;;;;6067824;23;20003;-70
2024/02/18 08:31:17;;;;;;;15.88;9.45;;;;;;;;;;6016001;23;20007;-71
2024/02/18 08:33:45;;;;;;;20.58;10.98;;;;;;;;;;6016468;23;20437;-70
2024/02/18 08:36:11;;;;;;;18.13;11.57;;;;;;;;;;6039957;23;20007;-71
2024/02/18 08:38:38;;;;;;;21.30;10.65;;;;;;;;;;6064635;23;20014;-72
2024/02/18 08:41:04;;;;;;;20.33;10.82;;;;;;;;;;6038937;23;20347;-71
2024/02/18 08:43:32;;;;;;;25.23;11.45;;;;;;;;;;6065498;23;20031;-71
2024/02/18 08:45:58;;;;;;;25.45;11.15;;;;;;;;;;6039296;23;20249;-71
2024/02/18 08:48:24;;;;;;;22.67;12.80;;;;;;;;;;6038872;23;20030;-70
2024/02/18 08:50:51;;;;;;;24.92;12.25;;;;;;;;;;6038658;23;20425;-71
2024/02/18 08:53:19;;;;;;;25.10;11.05;;;;;;;;;;6063642;23;20095;-69
2024/02/18 08:55:46;;;;;;;21.08;11.90;;;;;;;;;;6038996;23;20095;-70
2024/02/18 08:58:13;;;;;;;24.83;11.38;;;;;;;;;;6039157;23;20018;-71
2024/02/18 09:00:39;;;;;;;21.90;11.50;;;;;;;;;;6038585;23;20642;-70
2024/02/18 09:03:06;;;;;;;21.30;11.20;;;;;;;;;;6038870;23;20018;-70
2024/02/18 09:05:32;;;;;;;20.90;11.98;;;;;;;;;;6064480;23;20341;-71
2024/02/18 09:07:58;;;;;;;23.13;10.63;;;;;;;;;;6038606;23;20010;-71
2024/02/18 09:10:23;;;;;;;22.17;11.90;;;;;;;;;;6064545;23;20075;-69
2024/02/18 09:12:49;;;;;;;19.15;11.23;;;;;;;;;;6064354;23;20318;-70
2024/02/18 09:15:15;;;;;;;20.30;11.07;;;;;;;;;;6039231;23;20053;-70
2024/02/18 09:17:43;;;;;;;29.90;17.98;;;;;;;;;;6064499;23;20007;-70
2024/02/18 09:20:09;;;;;;;26.85;12.25;;;;;;;;;;6039372;23;20017;-72
2024/02/18 09:22:35;;;;;;;19.40;11.32;;;;;;;;;;6043156;23;20511;-69
2024/02/18 09:25:00;;;;;;;21.73;10.90;;;;;;;;;;6039016;23;20006;-69
2024/02/18 09:27:26;;;;;;;15.75;10.32;;;;;;;;;;6064704;23;20424;-71
2024/02/18 09:29:53;;;;;;;22.75;10.75;;;;;;;;;;6038437;23;20360;-69
2024/02/18 09:32:18;;;;;;;17.33;9.68;;;;;;;;;;6064067;23;20007;-72
2024/02/18 09:34:44;;;;;;;17.70;10.00;;;;;;;;;;6039278;23;20481;-71
2024/02/18 09:37:12;;;;;;;16.52;9.65;;;;;;;;;;6038502;23;20340;-73
2024/02/18 09:39:38;;;;;;;18.30;9.88;;;;;;;;;;6038603;23;20019;-71
2024/02/18 09:42:07;;;;;;;23.70;10.70;;;;;;;;;;6063997;23;20483;-72
2024/02/18 09:44:37;;;;;;;20.23;10.82;;;;;;;;;;6038842;23;20385;-70
2024/02/18 09:47:05;;;;;;;17.20;9.68;;;;;;;;;;6015852;23;20463;-70
2024/02/18 09:49:34;;;;;;;18.48;9.88;;;;;;;;;;6039420;23;20436;-72
2024/02/18 09:52:01;;;;;;;16.95;10.18;;;;;;;;;;6063177;23;20322;-70
2024/02/18 09:54:30;;;;;;;18.42;10.07;;;;;;;;;;6038929;23;20006;-71
2024/02/18 09:56:56;;;;;;;16.10;8.85;;;;;;;;;;6038409;23;20070;-71
2024/02/18 09:59:22;;;;;;;18.88;9.32;;;;;;;;;;6039325;23;20058;-72
2024/02/18 10:01:56;;;;;;;17.15;9.57;;;;;;;;;;6038726;23;20011;-70
2024/02/18 10:04:22;;;;;;;16.88;9.80;;;;;;;;;;6039883;23;20013;-69
2024/02/18 10:06:49;;;;;;;20.27;10.43;;;;;;;;;;6063991;23;20436;-70
2024/02/18 10:09:14;;;;;;;15.88;9.13;;;;;;;;;;6064400;23;20003;-70
2024/02/18 10:11:40;;;;;;;19.30;9.65;;;;;;;;;;6038750;23;20097;-70
2024/02/18 10:14:06;;;;;;;15.70;10.43;;;;;;;;;;6063933;23;20030;-72
2024/02/18 10:16:34;;;;;;;15.82;9.77;;;;;;;;;;6038604;23;20023;-71
2024/02/18 10:19:00;;;;;;;16.95;10.48;;;;;;;;;;6063149;23;20094;-69
2024/02/18 10:21:26;;;;;;;19.85;10.73;;;;;;;;;;6064086;23;20042;-72
2024/02/18 10:23:51;;;;;;;12.55;7.95;;;;;;;;;;6038076;23;20380;-70
2024/02/18 10:26:17;;;;;;;17.58;7.68;;;;;;;;;;6038375;23;20031;-72
2024/02/18 10:28:43;;;;;;;13.02;8.35;;;;;;;;;;6064205;23;20034;-72
2024/02/18 10:31:09;;;;;;;16.08;8.35;;;;;;;;;;6063783;23;20011;-71
2024/02/18 10:33:35;;;;;;;12.82;7.25;;;;;;;;;;6038366;23;20014;-71
2024/02/18 10:36:08;;;;;;;14.35;6.20;;;;;;;;;;6038711;23;20037;-70
2024/02/18 10:38:40;;;;;;;12.07;7.45;;;;;;;;;;6040500;23;20089;-73
2024/02/18 10:41:10;;;;;;;14.38;7.10;;;;;;;;;;6065588;23;20071;-72
2024/02/18 10:43:50;;;;;;;8.95;5.57;;;;;;;;;;6017220;23;20019;-73
2024/02/18 10:46:21;;;;;;;9.35;5.55;;;;;;;;;;6040736;23;20464;-72
2024/02/18 10:48:53;;;;;;;7.82;5.32;;;;;;;;;;6041156;23;20018;-70
2024/02/18 10:51:26;;;;;;;8.02;4.57;;;;;;;;;;6040261;23;20124;-71
2024/02/18 10:54:19;;;;;;;8.23;5.20;;;;;;;;;;6040519;23;20017;-72
2024/02/18 10:56:46;;;;;;;7.07;3.85;;;;;;;;;;6040144;23;20011;-70
2024/02/18 10:59:22;;;;;;;7.28;4.53;;;;;;;;;;6065926;23;20429;-71
2024/02/18 11:02:19;;;;;;;6.95;4.80;;;;;;;;;;6042210;23;20034;-70
2024/02/18 11:04:45;;;;;;;8.98;4.88;;;;;;;;;;6042795;23;20013;-70
2024/02/18 11:07:11;;;;;;;10.15;5.57;;;;;;;;;;6065907;23;20038;-72
2024/02/18 11:09:41;;;;;;;13.07;4.95;;;;;;;;;;6040226;23;20338;-71
2024/02/18 11:12:08;;;;;;;6.95;4.28;;;;;;;;;;6039806;23;20011;-69
2024/02/18 11:14:35;;;;;;;7.97;4.50;;;;;;;;;;6040146;23;20381;-70
2024/02/18 11:17:02;;;;;;;10.18;4.82;;;;;;;;;;6063315;23;20011;-71
2024/02/18 11:19:34;;;;;;;11.05;5.72;;;;;;;;;;6065317;23;20007;-70
2024/02/18 11:22:01;;;;;;;10.15;5.63;;;;;;;;;;6039729;23;20018;-72
2024/02/18 11:24:26;;;;;;;11.73;7.45;;;;;;;;;;6065337;23;20006;-69
2024/02/18 11:26:52;;;;;;;7.97;5.78;;;;;;;;;;6065558;23;19995;-70
2024/02/18 11:29:18;;;;;;;8.00;5.63;;;;;;;;;;6065813;23;20015;-69
2024/02/18 11:31:44;;;;;;;9.88;5.65;;;;;;;;;;6065701;23;20011;-70
2024/02/18 11:34:12;;;;;;;9.50;5.85;;;;;;;;;;6039799;23;20017;-72
2024/02/18 11:36:37;;;;;;;8.07;5.50;;;;;;;;;;6039867;23;20033;-71
2024/02/18 11:39:07;;;;;;;10.13;5.97;;;;;;;;;;6039634;23;20018;-71
2024/02/18 11:41:36;;;;;;;13.60;5.88;;;;;;;;;;6040163;23;20432;-69
2024/02/18 11:44:12;;;;;;;7.47;4.97;;;;;;;;;;6065471;23;20011;-71
2024/02/18 11:46:50;;;;;;;7.63;4.80;;;;;;;;;;6039831;23;20014;-71
2024/02/18 11:49:16;;;;;;;11.48;4.65;;;;;;;;;;6016672;23;20042;-71
2024/02/18 11:51:42;;;;;;;8.73;5.32;;;;;;;;;;6065211;23;20026;-71
2024/02/18 11:54:08;;;;;;;14.13;4.97;;;;;;;;;;6064932;23;20021;-70
2024/02/18 11:56:34;;;;;;;8.25;4.95;;;;;;;;;;6040158;23;20006;-71
2024/02/18 11:59:01;;;;;;;9.68;4.85;;;;;;;;;;6065114;23;20013;-69
2024/02/18 12:01:27;;;;;;;8.93;5.25;;;;;;;;;;6040539;23;20090;-73
2024/02/18 12:03:56;;;;;;;9.52;5.20;;;;;;;;;;6063734;23;20011;-71
2024/02/18 12:06:26;;;;;;;7.05;4.60;;;;;;;;;;6065610;23;20003;-72
2024/02/18 12:08:52;;;;;;;7.15;4.97;;;;;;;;;;6016322;23;20078;-73
2024/02/18 12:11:18;;;;;;;8.60;4.47;;;;;;;;;;6039280;23;20030;-68
2024/02/18 12:13:48;;;;;;;10.80;5.45;;;;;;;;;;6039378;23;20013;-71
2024/02/18 12:16:14;;;;;;;7.03;4.80;;;;;;;;;;6040154;23;20018;-70
2024/02/18 12:18:40;;;;;;;6.85;4.15;;;;;;;;;;6065174;23;20011;-71
2024/02/18 12:21:07;;;;;;;9.35;4.25;;;;;;;;;;6039793;23;20362;-71
2024/02/18 12:23:42;;;;;;;;;;;;;;;;;;6066546;23;20087;-69
2024/02/18 12:26:08;;;;;;;10.20;4.47;;;;;;;;;;6064258;23;19929;-71
2024/02/18 12:28:34;;;;;;;10.93;4.38;;;;;;;;;;6040733;23;20054;-71
2024/02/18 12:31:01;;;;;;;7.68;4.07;;;;;;;;;;6040427;23;20033;-71
2024/02/18 12:33:27;;;;;;;5.90;4.05;;;;;;;;;;6064038;23;20003;-70
2024/02/18 12:35:53;;;;;;;7.70;4.07;;;;;;;;;;6040285;23;20424;-70
2024/02/18 12:38:21;;;;;;;5.13;3.72;;;;;;;;;;6042312;23;20011;-71
2024/02/18 12:40:54;;;;;;;7.35;4.28;;;;;;;;;;6019055;23;20014;-69
2024/02/18 12:43:20;;;;;;;8.68;3.92;;;;;;;;;;6066002;23;20002;-72
2024/02/18 12:45:45;;;;;;;10.23;6.28;;;;;;;;;;6039535;23;20083;-70
2024/02/18 12:48:12;;;;;;;8.40;3.88;;;;;;;;;;6063323;23;20015;-73
2024/02/18 12:50:38;;;;;;;6.47;3.45;;;;;;;;;;6063202;23;20002;-72
2024/02/18 12:53:05;;;;;;;4.50;3.20;;;;;;;;;;6056302;23;20022;-71
2024/02/18 12:55:34;;;;;;;5.10;3.50;;;;;;;;;;6064845;23;20002;-71
2024/02/18 12:58:02;;;;;;;8.55;4.30;;;;;;;;;;6063816;23;20031;-71
2024/02/18 13:00:29;;;;;;;4.82;3.65;;;;;;;;;;6063305;23;20006;-74
2024/02/18 13:03:01;;;;;;;4.47;3.25;;;;;;;;;;6065513;23;20062;-71
2024/02/18 13:05:38;;;;;;;6.63;3.35;;;;;;;;;;6063821;23;20014;-70
2024/02/18 13:08:08;;;;;;;4.93;3.67;;;;;;;;;;6066745;23;20109;-69
2024/02/18 13:10:35;;;;;;;4.75;3.20;;;;;;;;;;6069251;23;20027;-69
2024/02/18 13:13:01;;;;;;;4.50;2.83;;;;;;;;;;6063150;23;20050;-73
2024/02/18 13:15:27;;;;;;;6.40;3.33;;;;;;;;;;6064723;23;20009;-69
2024/02/18 13:17:53;;;;;;;4.57;2.85;;;;;;;;;;6063311;23;20014;-71
2024/02/18 13:20:19;;;;;;;6.80;3.10;;;;;;;;;;6062756;23;20443;-72
2024/02/18 13:22:46;;;;;;;3.55;2.53;;;;;;;;;;6039081;23;20010;-71
2024/02/18 13:25:13;;;;;;;2.67;2.20;;;;;;;;;;6062033;23;20013;-70
2024/02/18 13:27:42;;;;;;;3.90;2.30;;;;;;;;;;6039012;23;20019;-72
2024/02/18 13:30:09;;;;;;;7.32;2.47;;;;;;;;;;6064025;23;20018;-70
2024/02/18 13:32:46;;;;;;;4.93;2.60;;;;;;;;;;6064388;23;20463;-73
2024/02/18 13:35:13;;;;;;;6.30;3.35;;;;;;;;;;6062848;23;20042;-71
2024/02/18 13:37:42;;;;;;;3.13;2.42;;;;;;;;;;6062850;23;20015;-69
2024/02/18 13:40:09;;;;;;;4.32;2.78;;;;;;;;;;6062865;23;20015;-71
2024/02/18 13:42:38;;;;;;;32.95;17.95;;;;;;;;;;6062075;23;20015;-71
2024/02/18 13:45:05;;;;;;;4.40;2.20;;;;;;;;;;6062576;23;20483;-70
2024/02/18 13:47:39;;;;;;;4.43;3.03;;;;;;;;;;6064455;23;20091;-72
2024/02/18 13:50:06;;;;;;;4.93;2.25;;;;;;;;;;6063827;23;20014;-72
2024/02/18 13:52:32;;;;;;;2.10;1.90;;;;;;;;;;6062166;23;20057;-71
2024/02/18 13:54:58;;;;;;;6.00;2.50;;;;;;;;;;6062415;23;20082;-69
2024/02/18 13:57:28;;;;;;;3.42;2.40;;;;;;;;;;6063869;23;20033;-71
2024/02/18 13:59:57;;;;;;;2.47;2.05;;;;;;;;;;6064258;23;20007;-70
2024/02/18 14:02:23;;;;;;;11.45;2.53;;;;;;;;;;6062213;23;20428;-70
2024/02/18 14:04:56;;;;;;;4.38;2.15;;;;;;;;;;6062506;23;20017;-71
2024/02/18 14:07:24;;;;;;;5.85;2.33;;;;;;;;;;6063933;23;20026;-70
2024/02/18 14:09:50;;;;;;;6.40;2.33;;;;;;;;;;6062598;23;20066;-70
2024/02/18 14:12:20;;;;;;;7.20;3.50;;;;;;;;;;6063033;23;20011;-69
2024/02/18 14:14:51;;;;;;;5.47;3.42;;;;;;;;;;6063637;23;20011;-72
2024/02/18 14:17:21;;;;;;;6.63;4.15;;;;;;;;;;6065976;23;20018;-70
2024/02/18 14:19:48;;;;;;;7.45;3.97;;;;;;;;;;6040558;23;20018;-70
2024/02/18 14:22:21;;;;;;;7.22;4.40;;;;;;;;;;6066666;23;20017;-71
2024/02/18 14:25:05;;;;;;;7.90;4.50;;;;;;;;;;6066379;23;19999;-70
2024/02/18 14:27:33;;;;;;;6.55;3.65;;;;;;;;;;6066131;23;20003;-73